Galveston, TX

5:45 AM CDT on August 04, 2015 (GMT -0500)
Galveston.com | | Change Station
CLOSE
Current Station
Personal Weather Station
Location: Galveston, TX
Elevation: 36 ft
Nearby Weather Stations

Elev 36 ft 29.31 °N, 94.79 °W | Updated 20 seconds ago

Clear
Clear
82.9 °F
Feels Like 91 °F
N
1.6
Wind Variable Wind from WSW
Gusts 3.0 mph

Today
High -- | Low -- °F
--% Chance of Precip.
Yesterday
High -- | Low -- °F
Precip. -- in
6:41 AM 8:09 PM
Waning Gibbous, 79% visible
Pressure 29.95 in
Visibility 10.0 miles
Clouds Few 4200 ft
Heat Index 91 °F
Dew Point 76 °F
Humidity 79%
Rainfall 0.00 in
Snow Depth Not available.
UV 0 out of 12
Pollen 3.30 out of 12
Air Quality Not available.
Flu Activity Not available.
METAR KGLS 040952Z AUTO 00000KT 10SM FEW042 28/24 A2995 RMK AO2 SLP141 T02830244

More Conditions Fewer Conditions

Pressure 29.95 in
Visibility 10.0 miles
Clouds Few 4200 ft
Heat Index 91 °F
Dew Point 76 °F
Humidity 79%
Rainfall 0.00 in
Snow Depth Not available.
UV 0 out of 12
Pollen 3.30 out of 12
Air Quality Not available.
Flu Activity Not available.
METAR KGLS 040952Z AUTO 00000KT 10SM FEW042 28/24 A2995 RMK AO2 SLP141 T02830244

More Conditions Fewer Conditions

10-Day Weather Forecast

×

Almanac

Astronomy

Aug. 04, 2015 Rise Set
Actual Time
Civil Twilight
Nautical Twilight
Astronomical Twilight
Moon
Length of Visible Light
Length of Day
Tomorrow will be .
, % of the Moon is Illuminated

Today's Extremes

State Highs State Lows

Community

WunderPhotos

Upload Photos

1,843,883 photos uploaded!

WunderBlogs® & News

Nearby

Air Quality

  Air Quality AQ Index Pollutant
Not available.

Snow Depth

Station Depth Elevation

Earthquake Activity

City Distance Mag. Time & Date
Minimum magnitude displayed is 2.5.

Coastal Water Temperatures

Place Temperature

Stations

Nearby Weather Stations

Station Location Temp. Windchill Dew Point Humidity Wind Precip. Elev Updated Type